Time;durP1;ratioP1;P1;durP2;ratioP2;P2;SDS_P1;SDS_P2;PMS_P1;PMS_P2;Temp;Humidity;BMP_temperature;BMP_pressure;BME280_temperature;BME280_humidity;BME280_pressure;Samples;Min_cycle;Max_cycle;Signal;HPM_P1;HPM_P2
2023/08/26 00:01:30;;;;;;;6.57;3.50;;;;;;;19.32;100.00;97926.97;5139301;28;20047;-66
2023/08/26 00:03:56;;;;;;;7.82;3.13;;;;;;;19.34;100.00;97949.53;5139176;28;20051;-66
2023/08/26 00:06:22;;;;;;;5.20;3.38;;;;;;;19.28;100.00;97954.91;5139463;28;20051;-63
2023/08/26 00:08:50;;;;;;;3.05;2.55;;;;;;;19.65;100.00;97907.88;5138929;28;20078;-61
2023/08/26 00:11:16;;;;;;;7.97;3.15;;;;;;;19.52;100.00;97927.41;5139306;28;20072;-64
2023/08/26 00:13:43;;;;;;;8.65;3.10;;;;;;;19.56;100.00;97918.16;5138946;28;20051;-63
2023/08/26 00:16:09;;;;;;;4.88;2.88;;;;;;;19.15;100.00;97951.41;5139043;28;20064;-64
2023/08/26 00:18:35;;;;;;;5.65;3.47;;;;;;;19.31;100.00;97985.78;5138782;28;20051;-62
2023/08/26 00:21:01;;;;;;;6.85;2.88;;;;;;;19.20;100.00;97963.97;5139030;28;20321;-61
2023/08/26 00:23:26;;;;;;;5.63;3.20;;;;;;;19.08;100.00;98032.22;5138813;28;20062;-62
2023/08/26 00:25:52;;;;;;;5.15;3.40;;;;;;;19.11;100.00;98041.66;5138962;28;20082;-62
2023/08/26 00:28:18;;;;;;;5.40;3.05;;;;;;;19.10;100.00;98065.88;5139073;28;20047;-64
2023/08/26 00:30:45;;;;;;;7.80;2.92;;;;;;;18.69;100.00;98120.34;5138687;28;20055;-64
2023/08/26 00:33:11;;;;;;;6.38;3.60;;;;;;;18.97;100.00;98123.47;5138991;28;20053;-62
2023/08/26 00:35:38;;;;;;;3.00;2.70;;;;;;;18.60;100.00;98167.44;5138701;28;20047;-64
2023/08/26 00:38:04;;;;;;;10.85;4.93;;;;;;;18.90;100.00;98143.91;5139187;28;20134;-61
2023/08/26 00:40:35;;;;;;;3.65;2.90;;;;;;;18.87;100.00;98138.47;5138580;28;20401;-62
2023/08/26 00:43:07;;;;;;;8.02;2.97;;;;;;;18.90;100.00;98134.81;5138823;28;20051;-64
2023/08/26 00:45:33;;;;;;;4.78;3.13;;;;;;;18.94;100.00;98152.13;5138429;28;20058;-63
2023/08/26 00:48:00;;;;;;;8.60;2.80;;;;;;;18.97;100.00;98129.03;5138627;28;20047;-61
2023/08/26 00:50:26;;;;;;;3.88;3.30;;;;;;;18.94;100.00;98085.47;5138302;28;20062;-61
2023/08/26 00:52:53;;;;;;;11.13;3.30;;;;;;;18.97;100.00;98099.25;5138500;28;20100;-66
2023/08/26 00:55:20;;;;;;;6.80;3.28;;;;;;;18.50;100.00;98227.59;5138683;28;20130;-63
2023/08/26 00:57:46;;;;;;;4.30;3.10;;;;;;;18.75;100.00;98295.50;5138428;28;20133;-61
2023/08/26 01:00:12;;;;;;;3.60;2.97;;;;;;;18.90;100.00;98207.00;5138594;28;20093;-66
2023/08/26 01:02:39;;;;;;;6.07;3.05;;;;;;;18.87;100.00;98228.13;5137667;27;20092;-61
2023/08/26 01:05:07;;;;;;;5.30;3.22;;;;;;;18.76;100.00;98195.13;5138496;28;20057;-66
2023/08/26 01:07:33;;;;;;;5.88;3.45;;;;;;;19.01;100.00;98188.00;5138131;28;20051;-63
2023/08/26 01:09:59;;;;;;;5.03;2.90;;;;;;;19.08;100.00;98192.56;5138431;28;20138;-64
2023/08/26 01:12:31;;;;;;;8.98;3.63;;;;;;;18.96;100.00;98197.69;5138023;28;20138;-62
2023/08/26 01:15:02;;;;;;;5.75;2.85;;;;;;;18.55;100.00;98268.66;5138381;28;20057;-62
2023/08/26 01:17:29;;;;;;;4.90;3.17;;;;;;;18.37;100.00;98376.63;5138284;28;20430;-62
2023/08/26 01:19:58;;;;;;;4.30;3.28;;;;;;;18.70;100.00;98373.78;5138042;28;20051;-66
2023/08/26 01:22:27;;;;;;;6.60;3.28;;;;;;;18.71;100.00;98319.78;5138202;28;20047;-66
2023/08/26 01:24:54;;;;;;;7.07;4.40;;;;;;;18.92;100.00;98312.88;5137965;28;20053;-62
2023/08/26 01:27:20;;;;;;;5.18;3.25;;;;;;;18.78;100.00;98339.81;5137909;28;20151;-64
2023/08/26 01:29:45;;;;;;;4.13;2.60;;;;;;;19.02;100.00;98236.78;5137673;28;20062;-64
2023/08/26 01:32:18;;;;;;;8.88;3.85;;;;;;;19.14;100.00;98176.88;5138091;28;20053;-66
2023/08/26 01:34:49;;;;;;;8.45;3.17;;;;;;;19.16;100.00;98153.00;5137681;28;20058;-64
2023/08/26 01:37:19;;;;;;;3.95;3.20;;;;;;;19.13;100.00;98148.34;5138048;28;20103;-62
2023/08/26 01:39:46;;;;;;;5.32;3.58;;;;;;;19.25;100.00;98147.50;5137902;28;20055;-67
2023/08/26 01:42:15;;;;;;;8.40;3.97;;;;;;;19.16;100.00;98152.19;5137500;28;20138;-66
2023/08/26 01:44:41;;;;;;;6.07;3.05;;;;;;;19.22;100.00;98159.53;5137886;28;20051;-64
2023/08/26 01:47:07;;;;;;;7.40;3.20;;;;;;;19.27;100.00;98160.97;5137662;28;20051;-62
2023/08/26 01:49:34;;;;;;;5.63;3.13;;;;;;;19.26;100.00;98181.66;5137661;28;20149;-66
2023/08/26 01:52:00;;;;;;;4.80;3.65;;;;;;;19.30;100.00;98171.19;5137772;28;20050;-62
2023/08/26 01:54:25;;;;;;;4.38;3.22;;;;;;;19.26;100.00;98185.22;5137772;28;20443;-61
2023/08/26 01:56:51;;;;;;;7.20;2.72;;;;;;;19.16;100.00;98244.69;5137318;28;20074;-62
2023/08/26 01:59:18;;;;;;;5.68;3.20;;;;;;;19.25;100.00;98230.09;5137636;28;20043;-62
2023/08/26 02:01:44;;;;;;;4.82;3.35;;;;;;;19.27;100.00;98178.41;5137208;28;20488;-63
2023/08/26 02:04:10;;;;;;;7.55;4.13;;;;;;;19.24;100.00;98179.31;5137679;28;20083;-62
2023/08/26 02:06:38;;;;;;;5.80;3.55;;;;;;;19.01;100.00;98224.13;5137111;28;20097;-65
2023/08/26 02:09:04;;;;;;;3.65;3.20;;;;;;;19.14;100.00;98174.88;5137366;28;20051;-62
2023/08/26 02:11:30;;;;;;;4.13;3.05;;;;;;;18.90;100.00;98274.44;5137286;28;20058;-62
2023/08/26 02:13:56;;;;;;;5.70;3.92;;;;;;;19.13;100.00;98192.00;5137763;27;20188;-65
2023/08/26 02:16:22;;;;;;;5.53;3.55;;;;;;;19.19;100.00;98174.34;5140990;28;20083;-66
2023/08/26 02:18:48;;;;;;;5.00;3.22;;;;;;;19.23;100.00;98133.31;5141143;28;20146;-65
2023/08/26 02:21:14;;;;;;;10.38;3.42;;;;;;;19.20;100.00;98116.75;5141117;28;20059;-66
2023/08/26 02:23:40;;;;;;;5.13;3.20;;;;;;;18.99;100.00;98182.09;5140776;28;20074;-64
2023/08/26 02:26:06;;;;;;;3.65;3.05;;;;;;;18.80;100.00;98175.56;5141135;28;20043;-62
2023/08/26 02:28:32;;;;;;;6.32;3.72;;;;;;;19.07;100.00;98239.00;5140639;28;20150;-63
2023/08/26 02:31:00;;;;;;;5.88;3.38;;;;;;;19.18;100.00;98189.44;5141001;28;20324;-66
2023/08/26 02:33:27;;;;;;;7.28;3.20;;;;;;;19.23;100.00;98202.78;5140572;28;20047;-61
2023/08/26 02:35:52;;;;;;;4.53;3.38;;;;;;;18.98;100.00;98236.09;5140965;28;20485;-63
2023/08/26 02:38:18;;;;;;;11.85;3.63;;;;;;;19.19;100.00;98243.78;5140455;28;20130;-61
2023/08/26 02:40:51;;;;;;;6.13;3.42;;;;;;;19.15;100.00;98245.88;5140639;28;20082;-61
2023/08/26 02:43:17;;;;;;;4.88;3.30;;;;;;;18.77;100.00;98266.09;5140737;28;20345;-64
2023/08/26 02:45:43;;;;;;;10.40;3.40;;;;;;;18.99;100.00;98269.00;5140530;28;20051;-66
2023/08/26 02:48:09;;;;;;;5.65;3.40;;;;;;;19.07;100.00;98275.13;5140680;28;20054;-66
2023/08/26 02:50:37;;;;;;;3.72;3.20;;;;;;;19.05;100.00;98230.31;5140342;28;20093;-67
2023/08/26 02:53:03;;;;;;;9.40;3.90;;;;;;;19.06;100.00;98234.69;5140674;28;20047;-61
2023/08/26 02:55:29;;;;;;;11.93;3.83;;;;;;;18.79;100.00;98210.91;5140317;28;20061;-65
2023/08/26 02:57:55;;;;;;;11.20;4.28;;;;;;;18.93;100.00;98272.78;5140639;28;20070;-67
2023/08/26 03:00:21;;;;;;;11.38;3.70;;;;;;;18.92;100.00;98273.97;5140129;28;20127;-67
2023/08/26 03:02:47;;;;;;;6.63;3.45;;;;;;;18.89;100.00;98299.84;5140631;28;20049;-65
2023/08/26 03:05:13;;;;;;;4.68;3.03;;;;;;;18.81;100.00;98272.31;5139967;28;20141;-64
2023/08/26 03:07:39;;;;;;;9.20;3.88;;;;;;;18.84;100.00;98312.31;5140228;28;20043;-62
2023/08/26 03:10:06;;;;;;;10.50;3.70;;;;;;;18.83;100.00;98290.50;5140154;28;20043;-64
2023/08/26 03:12:32;;;;;;;7.60;3.60;;;;;;;18.71;100.00;98328.91;5140116;28;20142;-61
2023/08/26 03:14:58;;;;;;;11.00;3.47;;;;;;;18.53;100.00;98396.03;5140234;28;20054;-62
2023/08/26 03:17:24;;;;;;;4.10;3.20;;;;;;;18.55;100.00;98464.97;5140012;28;20082;-64
2023/08/26 03:19:50;;;;;;;6.38;3.67;;;;;;;18.44;100.00;98470.78;5139937;28;20142;-65
2023/08/26 03:22:16;;;;;;;3.78;3.40;;;;;;;18.47;100.00;98516.31;5139786;28;20488;-66
2023/08/26 03:24:42;;;;;;;8.75;3.75;;;;;;;18.43;100.00;98510.09;5139738;27;20043;-66
2023/08/26 03:27:08;;;;;;;4.88;3.50;;;;;;;18.44;100.00;98537.41;5139728;28;20515;-67
2023/08/26 03:29:34;;;;;;;7.32;3.92;;;;;;;18.40;100.00;98580.34;5140027;28;20055;-66
2023/08/26 03:32:00;;;;;;;5.43;3.60;;;;;;;18.28;100.00;98618.63;5139696;28;20054;-64
2023/08/26 03:34:26;;;;;;;5.88;3.40;;;;;;;18.37;100.00;98595.84;5140315;28;20115;-62
2023/08/26 03:36:52;;;;;;;4.53;3.70;;;;;;;18.40;100.00;98580.34;5139492;28;20114;-65
2023/08/26 03:39:18;;;;;;;7.50;3.90;;;;;;;18.46;100.00;98595.22;5139689;28;20125;-66
2023/08/26 03:41:45;;;;;;;5.85;3.72;;;;;;;18.47;100.00;98614.25;5139526;28;20069;-66
2023/08/26 03:44:11;;;;;;;6.72;3.58;;;;;;;18.61;100.00;98560.38;5139662;28;20459;-66
2023/08/26 03:46:36;;;;;;;5.22;3.45;;;;;;;18.56;100.00;98591.44;5139772;28;20055;-67
2023/08/26 03:49:03;;;;;;;4.40;3.63;;;;;;;18.66;100.00;98603.50;5139466;28;20440;-66
2023/08/26 03:51:29;;;;;;;6.22;3.67;;;;;;;18.77;100.00;98588.19;5139619;28;20051;-61
2023/08/26 03:53:54;;;;;;;4.53;3.70;;;;;;;18.97;100.00;98540.88;5139336;28;20486;-62
2023/08/26 03:56:20;;;;;;;4.78;3.22;;;;;;;19.02;100.00;98443.09;5139614;28;20515;-64
2023/08/26 03:58:49;;;;;;;8.90;3.88;;;;;;;19.33;100.00;98355.72;5139190;28;20047;-64
2023/08/26 04:01:15;;;;;;;5.97;3.55;;;;;;;19.88;100.00;98069.91;5139580;28;20457;-66
2023/08/26 04:03:42;;;;;;;9.70;4.13;;;;;;;20.52;100.00;97910.78;5139092;28;20082;-65
2023/08/26 04:06:08;;;;;;;10.32;4.13;;;;;;;20.99;100.00;97784.94;5139345;28;20065;-62
2023/08/26 04:08:34;;;;;;;8.50;3.50;;;;;;;21.24;100.00;97750.34;5139243;28;20058;-65
2023/08/26 04:11:01;;;;;;;5.68;3.40;;;;;;;21.50;100.00;97745.13;5139187;28;20051;-68
2023/08/26 04:13:28;;;;;;;5.50;3.80;;;;;;;21.72;100.00;97744.84;5139338;28;20116;-61
2023/08/26 04:15:56;;;;;;;4.82;3.50;;;;;;;22.09;100.00;97776.06;5139114;28;20495;-65
2023/08/26 04:18:22;;;;;;;8.75;4.22;;;;;;;22.27;100.00;97805.09;5139148;28;20054;-64
2023/08/26 04:20:49;;;;;;;10.25;5.15;;;;;;;22.73;100.00;97835.44;5138857;28;20055;-62
2023/08/26 04:23:15;;;;;;;5.65;2.90;;;;;;;22.73;100.00;97903.28;5139254;28;20111;-64
2023/08/26 04:25:41;;;;;;;4.63;3.17;;;;;;;22.67;100.00;97888.41;5139051;28;20059;-63
2023/08/26 04:28:07;;;;;;;5.50;3.20;;;;;;;21.93;100.00;97851.06;5139142;28;20134;-68
2023/08/26 04:30:33;;;;;;;5.97;3.58;;;;;;;22.30;100.00;97823.69;5138653;28;20047;-64
2023/08/26 04:33:00;;;;;;;6.35;4.00;;;;;;;21.95;100.00;97856.91;5139110;28;20085;-62
2023/08/26 04:35:27;;;;;;;6.45;3.38;;;;;;;22.38;100.00;97844.41;5138905;28;20054;-62
2023/08/26 04:37:52;;;;;;;6.60;4.15;;;;;;;22.55;100.00;97848.31;5137722;27;20059;-64
2023/08/26 04:40:19;;;;;;;8.15;3.80;;;;;;;22.50;100.00;97870.56;5138906;28;20051;-67
2023/08/26 04:42:45;;;;;;;6.85;3.83;;;;;;;22.58;100.00;97874.50;5138539;28;20047;-64
2023/08/26 04:45:14;;;;;;;5.72;3.75;;;;;;;22.58;100.00;97870.94;5138879;28;20063;-63
2023/08/26 04:47:40;;;;;;;10.48;4.35;;;;;;;22.49;100.00;97860.63;5138652;28;20047;-67
2023/08/26 04:50:07;;;;;;;5.93;3.45;;;;;;;22.54;100.00;97834.84;5138749;28;20143;-64
2023/08/26 04:52:33;;;;;;;4.85;3.28;;;;;;;22.59;100.00;97841.75;5138391;28;20220;-64
2023/08/26 04:54:59;;;;;;;10.30;4.72;;;;;;;22.53;100.00;97878.75;5138734;28;20047;-64
2023/08/26 04:57:25;;;;;;;7.82;3.72;;;;;;;22.43;100.00;97846.56;5138308;28;20196;-62
2023/08/26 04:59:51;;;;;;;7.80;3.75;;;;;;;22.71;100.00;97852.69;5138702;28;20384;-61
2023/08/26 05:02:17;;;;;;;6.85;3.55;;;;;;;22.46;100.00;97850.41;5138216;28;20142;-64
2023/08/26 05:04:44;;;;;;;3.55;3.25;;;;;;;22.58;100.00;97877.31;5138397;28;20055;-67
2023/08/26 05:07:14;;;;;;;4.85;3.95;;;;;;;22.78;100.00;97876.69;5138221;28;20138;-63
2023/08/26 05:09:40;;;;;;;13.65;4.88;;;;;;;22.83;100.00;97859.25;5138384;28;20145;-64
2023/08/26 05:12:07;;;;;;;4.25;3.42;;;;;;;22.80;100.00;97863.00;5138645;28;20138;-66
2023/08/26 05:14:32;;;;;;;4.88;3.42;;;;;;;23.16;100.00;97923.41;5138159;28;20332;-61
2023/08/26 05:16:58;;;;;;;10.20;4.95;;;;;;;23.14;100.00;97934.31;5138416;28;20047;-61
2023/08/26 05:19:24;;;;;;;6.22;3.72;;;;;;;23.14;100.00;97925.91;5138030;28;20051;-62
2023/08/26 05:21:50;;;;;;;7.15;3.55;;;;;;;23.29;100.00;97970.66;5138275;28;20401;-66
2023/08/26 05:24:17;;;;;;;9.43;3.70;;;;;;;23.09;100.00;97976.13;5137795;28;20072;-62
2023/08/26 05:26:43;;;;;;;6.40;4.05;;;;;;;22.56;100.00;97935.69;5138260;28;20058;-64
2023/08/26 05:29:09;;;;;;;6.35;4.03;;;;;;;22.34;100.00;97926.81;5137789;28;20141;-62
2023/08/26 05:31:36;;;;;;;13.18;3.92;;;;;;;22.83;100.00;97915.16;5137632;28;20047;-62
2023/08/26 05:34:01;;;;;;;9.30;4.40;;;;;;;22.96;100.00;97886.97;5137949;28;20165;-62
2023/08/26 05:36:27;;;;;;;7.20;3.72;;;;;;;22.97;100.00;97922.81;5137625;28;20428;-62
2023/08/26 05:38:53;;;;;;;4.70;3.92;;;;;;;23.05;100.00;97911.25;5137878;28;20051;-61
2023/08/26 05:41:20;;;;;;;12.95;3.95;;;;;;;22.91;100.00;97923.91;5137775;28;20085;-62
2023/08/26 05:43:46;;;;;;;5.65;3.72;;;;;;;22.90;100.00;97928.75;5137720;28;20402;-61
2023/08/26 05:46:11;;;;;;;6.82;4.22;;;;;;;22.82;100.00;97899.59;5137646;28;20089;-61
2023/08/26 05:48:37;;;;;;;7.10;4.20;;;;;;;22.28;100.00;97823.41;5137986;27;20073;-62
2023/08/26 05:51:03;;;;;;;6.00;3.95;;;;;;;22.01;100.00;97810.38;5137377;28;20440;-63
2023/08/26 05:53:29;;;;;;;12.32;4.43;;;;;;;22.58;100.00;97845.81;5137803;28;20188;-66
2023/08/26 05:55:55;;;;;;;10.10;4.05;;;;;;;22.57;100.00;97816.34;5137712;28;20069;-64
2023/08/26 05:58:22;;;;;;;7.35;3.90;;;;;;;23.62;100.00;97874.59;5137931;28;20059;-62
2023/08/26 06:00:48;;;;;;;6.28;3.72;;;;;;;24.13;100.00;98019.72;5137280;28;20051;-62
2023/08/26 06:03:14;;;;;;;16.40;5.53;;;;;;;24.56;100.00;98128.66;5137285;28;20047;-62
2023/08/26 06:05:40;;;;;;;9.23;4.85;;;;;;;24.70;100.00;98139.06;5137547;28;20100;-62
2023/08/26 06:08:06;;;;;;;6.95;4.13;;;;;;;24.37;100.00;98147.66;5137397;28;20079;-64
2023/08/26 06:10:32;;;;;;;7.13;3.80;;;;;;;23.73;100.00;98081.88;5137463;28;20047;-67
2023/08/26 06:12:58;;;;;;;11.63;4.82;;;;;;;23.90;100.00;98108.16;5137339;28;20047;-64
2023/08/26 06:15:25;;;;;;;14.93;4.72;;;;;;;23.56;100.00;98017.19;5137538;28;20050;-63
2023/08/26 06:17:51;;;;;;;12.77;4.55;;;;;;;23.74;100.00;98049.84;5137077;28;20427;-61
2023/08/26 06:20:17;;;;;;;11.13;4.22;;;;;;;23.71;100.00;98028.41;5137430;28;20080;-66
2023/08/26 06:22:45;;;;;;;10.07;4.18;;;;;;;23.62;100.00;98029.22;5137137;28;20119;-61
2023/08/26 06:25:11;;;;;;;12.80;4.20;;;;;;;23.97;100.00;98036.25;5137504;28;20081;-67
2023/08/26 06:27:37;;;;;;;15.25;6.50;;;;;;;24.40;100.00;98071.84;5137040;28;20046;-64
2023/08/26 06:30:03;;;;;;;10.23;5.85;;;;;;;24.50;100.00;98122.19;5137275;28;20397;-62
2023/08/26 06:32:30;;;;;;;9.25;5.05;;;;;;;25.24;100.00;98166.88;5137250;28;20047;-61
2023/08/26 06:34:56;;;;;;;6.32;3.38;;;;;;;25.55;100.00;98217.53;5136863;28;20405;-62
2023/08/26 06:37:22;;;;;;;11.20;5.18;;;;;;;25.88;100.00;98246.56;5136891;28;20138;-62
2023/08/26 06:39:48;;;;;;;8.73;4.40;;;;;;;25.99;100.00;98311.28;5136955;28;20056;-64
2023/08/26 06:42:14;;;;;;;15.18;6.68;;;;;;;27.15;100.00;98405.19;5137200;28;20183;-63
2023/08/26 06:44:40;;;;;;;14.60;6.20;;;;;;;27.87;100.00;98421.19;5136916;28;20201;-63
2023/08/26 06:47:06;;;;;;;14.38;7.13;;;;;;;27.52;100.00;98419.31;5137054;28;20138;-65
2023/08/26 06:49:33;;;;;;;15.52;7.07;;;;;;;26.22;100.00;98391.00;5136652;28;20062;-65
2023/08/26 06:51:59;;;;;;;16.00;7.45;;;;;;;26.34;100.00;98375.84;5137051;28;20043;-67
2023/08/26 06:54:25;;;;;;;15.57;6.05;;;;;;;26.34;100.00;98364.59;5136638;28;20096;-66
2023/08/26 06:56:51;;;;;;;21.10;7.53;;;;;;;26.19;100.00;98363.88;5137116;28;20103;-65
2023/08/26 06:59:17;;;;;;;8.43;5.07;;;;;;;24.98;100.00;98312.53;5136482;27;20048;-63
2023/08/26 07:01:44;;;;;;;12.02;5.60;;;;;;;25.99;100.00;98303.66;5139987;28;20055;-62
2023/08/26 07:04:11;;;;;;;11.02;5.47;;;;;;;26.03;100.00;98298.59;5140390;28;20111;-66
2023/08/26 07:06:38;;;;;;;15.85;5.60;;;;;;;26.55;100.00;98356.97;5140016;28;20150;-68
2023/08/26 07:09:05;;;;;;;10.68;5.13;;;;;;;26.45;100.00;98352.72;5140058;28;20359;-64
2023/08/26 07:11:31;;;;;;;9.48;4.88;;;;;;;26.16;100.00;98351.63;5139918;28;20106;-62
2023/08/26 07:13:57;;;;;;;13.57;4.95;;;;;;;27.73;100.00;98411.56;5140294;28;20054;-67
2023/08/26 07:16:24;;;;;;;15.00;5.82;;;;;;;28.06;100.00;98438.47;5140247;28;20397;-66
2023/08/26 07:18:50;;;;;;;13.63;4.63;;;;;;;26.64;100.00;98421.47;5140300;28;20170;-67
2023/08/26 07:21:16;;;;;;;8.85;4.72;;;;;;;26.60;100.00;98409.69;5139845;28;20491;-67
2023/08/26 07:23:43;;;;;;;14.63;5.20;;;;;;;27.63;100.00;98422.25;5140269;28;20043;-62
2023/08/26 07:26:09;;;;;;;13.27;4.50;;;;;;;27.95;100.00;98432.75;5139798;28;20199;-65
2023/08/26 07:28:35;;;;;;;18.48;4.70;;;;;;;28.19;100.00;98441.63;5140174;28;20153;-63
2023/08/26 07:31:02;;;;;;;9.18;4.13;;;;;;;28.78;100.00;98471.16;5139869;28;20082;-62
2023/08/26 07:33:28;;;;;;;14.82;4.80;;;;;;;27.82;100.00;98464.13;5140168;28;20173;-67
2023/08/26 07:36:01;;;;;;;12.98;4.68;;;;;;;29.78;100.00;98484.03;5139890;28;20083;-68
2023/08/26 07:38:26;;;;;;;19.92;4.63;;;;;;;30.77;100.00;98486.47;5139683;28;20062;-67
2023/08/26 07:40:53;;;;;;;13.77;4.78;;;;;;;29.41;100.00;98481.38;5139823;28;20088;-66
2023/08/26 07:43:19;;;;;;;12.35;4.63;;;;;;;30.14;100.00;98484.28;5139622;28;20142;-64
2023/08/26 07:45:45;;;;;;;15.52;4.90;;;;;;;30.55;100.00;98467.50;5139867;28;20043;-65
2023/08/26 07:48:11;;;;;;;8.40;3.80;;;;;;;29.30;94.65;98488.56;5139420;28;20488;-64
2023/08/26 07:50:38;;;;;;;10.95;3.45;;;;;;;29.07;95.25;98489.78;5139940;28;20050;-63
2023/08/26 07:53:05;;;;;;;6.55;4.32;;;;;;;30.11;93.09;98488.13;5139348;28;20078;-60
2023/08/26 07:55:31;;;;;;;9.20;3.83;;;;;;;30.51;88.24;98488.84;5139645;28;20097;-61
2023/08/26 07:57:57;;;;;;;10.63;4.32;;;;;;;31.76;79.88;98482.84;5139207;28;20485;-60
2023/08/26 08:00:23;;;;;;;10.27;3.65;;;;;;;30.55;82.80;98480.88;5139527;28;20051;-61
2023/08/26 08:02:49;;;;;;;10.77;4.72;;;;;;;30.73;85.62;98483.13;5139507;28;20090;-61
2023/08/26 08:05:15;;;;;;;8.38;4.25;;;;;;;29.43;91.11;98471.13;5139076;28;20105;-63
2023/08/26 08:07:41;;;;;;;10.70;4.15;;;;;;;29.12;92.48;98472.06;5139415;28;20129;-64
2023/08/26 08:10:08;;;;;;;10.90;3.65;;;;;;;29.15;91.79;98471.06;5139114;28;20051;-61
2023/08/26 08:12:35;;;;;;;13.20;4.20;;;;;;;29.90;90.41;98465.78;5137906;27;20428;-64
2023/08/26 08:15:03;;;;;;;17.50;4.40;;;;;;;30.01;89.71;98474.25;5139119;28;20090;-67
2023/08/26 08:17:29;;;;;;;8.15;4.32;;;;;;;29.03;97.49;98467.44;5138945;28;20051;-61
2023/08/26 08:19:55;;;;;;;8.40;4.53;;;;;;;28.22;100.00;98465.97;5138947;28;20062;-64
2023/08/26 08:22:34;;;;;;;11.57;4.78;;;;;;;27.32;100.00;98442.69;5139178;28;20047;-66
2023/08/26 08:25:00;;;;;;;45.55;5.43;;;;;;;27.67;100.00;98442.50;5139040;28;20104;-61
2023/08/26 08:27:25;;;;;;;14.40;4.97;;;;;;;27.60;100.00;98430.94;5138917;28;20324;-60
2023/08/26 08:29:51;;;;;;;8.68;4.38;;;;;;;27.04;100.00;98413.47;5139025;28;20112;-61
2023/08/26 08:32:18;;;;;;;13.93;4.72;;;;;;;27.84;100.00;98428.56;5138907;28;20138;-61
2023/08/26 08:34:44;;;;;;;12.48;4.32;;;;;;;26.95;100.00;98415.16;5139048;28;20062;-60
2023/08/26 08:37:10;;;;;;;8.05;4.18;;;;;;;27.52;100.00;98407.28;5138687;28;20416;-59
2023/08/26 08:39:36;;;;;;;12.45;4.50;;;;;;;27.30;100.00;98411.47;5138774;28;20047;-60
2023/08/26 08:42:04;;;;;;;11.48;4.60;;;;;;;27.86;100.00;98436.53;5138762;28;20077;-65
2023/08/26 08:44:34;;;;;;;10.85;4.15;;;;;;;28.30;100.00;98443.75;5138939;28;20067;-60
2023/08/26 08:47:00;;;;;;;12.73;4.65;;;;;;;27.94;100.00;98442.47;5138560;28;20047;-65
2023/08/26 08:49:27;;;;;;;10.80;4.72;;;;;;;27.76;100.00;98426.69;5138783;28;20138;-61
2023/08/26 08:51:54;;;;;;;9.15;4.10;;;;;;;27.34;100.00;98408.44;5138577;28;20069;-65
2023/08/26 08:54:20;;;;;;;13.52;4.38;;;;;;;27.03;100.00;98421.16;5138627;28;20126;-66
2023/08/26 08:56:46;;;;;;;15.07;4.30;;;;;;;27.65;100.00;98418.91;5138285;28;20412;-63
2023/08/26 08:59:13;;;;;;;11.65;4.75;;;;;;;27.31;100.00;98426.31;5138352;28;20111;-60
2023/08/26 09:01:39;;;;;;;9.23;4.65;;;;;;;26.08;100.00;98406.66;5138611;28;20047;-66
2023/08/26 09:04:07;;;;;;;12.65;5.15;;;;;;;26.10;100.00;98384.47;5138462;28;20061;-60
2023/08/26 09:06:34;;;;;;;10.57;4.30;;;;;;;26.96;100.00;98401.91;5138394;28;20047;-60
2023/08/26 09:09:02;;;;;;;9.48;4.88;;;;;;;26.39;100.00;98394.03;5139162;28;20047;-65
2023/08/26 09:11:28;;;;;;;11.10;4.63;;;;;;;26.66;100.00;98393.66;5141527;28;20079;-65
2023/08/26 09:13:54;;;;;;;9.95;3.75;;;;;;;27.62;100.00;98423.53;5140684;28;20078;-63
2023/08/26 09:16:29;;;;;;;7.88;3.70;;;;;;;27.57;100.00;98426.28;5138033;28;20047;-65
2023/08/26 09:18:56;;;;;;;8.70;4.72;;;;;;;28.36;100.00;98425.59;5138115;28;20093;-61
2023/08/26 09:21:22;;;;;;;7.47;4.93;;;;;;;28.74;100.00;98433.97;5138098;28;20127;-63
2023/08/26 09:23:50;;;;;;;12.20;5.18;;;;;;;29.36;100.00;98445.44;5137684;27;20108;-61
2023/08/26 09:26:16;;;;;;;12.25;4.93;;;;;;;30.12;100.00;98441.59;5137993;28;20146;-61
2023/08/26 09:28:47;;;;;;;12.57;5.43;;;;;;;29.76;96.06;98452.72;5137985;28;20069;-60
2023/08/26 09:31:13;;;;;;;11.25;4.50;;;;;;;29.43;100.00;98448.53;5137826;28;20145;-62
2023/08/26 09:33:39;;;;;;;6.22;5.07;;;;;;;29.85;96.33;98460.91;5137955;28;20047;-66
2023/08/26 09:36:05;;;;;;;9.93;4.93;;;;;;;28.61;100.00;98452.13;5137931;28;20138;-61
2023/08/26 09:38:40;;;;;;;7.05;4.35;;;;;;;28.44;100.00;98440.00;5138055;28;20062;-65
2023/08/26 09:41:07;;;;;;;9.25;4.72;;;;;;;29.54;100.00;98437.25;5137659;28;20058;-66
2023/08/26 09:43:33;;;;;;;11.48;5.43;;;;;;;28.57;100.00;98443.13;5138047;28;20133;-67
2023/08/26 09:45:59;;;;;;;6.80;4.80;;;;;;;29.04;99.62;98454.88;5137812;28;20140;-61
2023/08/26 09:48:25;;;;;;;8.20;5.10;;;;;;;29.08;100.00;98446.16;5137446;28;20141;-66
2023/08/26 09:50:51;;;;;;;11.55;5.68;;;;;;;29.12;100.00;98443.84;5137699;28;20086;-67
2023/08/26 09:53:28;;;;;;;6.20;4.53;;;;;;;29.58;100.00;98425.69;5137577;28;20051;-62
2023/08/26 09:55:56;;;;;;;11.93;5.00;;;;;;;29.50;97.65;98433.16;5137715;28;20058;-62
2023/08/26 09:58:23;;;;;;;13.00;4.53;;;;;;;29.84;100.00;98436.00;5137536;28;20051;-62
2023/08/26 10:00:50;;;;;;;10.43;4.43;;;;;;;29.30;95.83;98442.63;5137773;28;20371;-65
2023/08/26 10:03:22;;;;;;;13.77;5.22;;;;;;;29.25;98.73;98437.72;5137314;28;20111;-66
2023/08/26 10:05:50;;;;;;;10.85;4.40;;;;;;;29.41;100.00;98439.81;5137745;28;20047;-66
2023/08/26 10:08:19;;;;;;;7.57;4.82;;;;;;;29.11;99.63;98442.31;5137110;28;20145;-64
2023/08/26 10:10:49;;;;;;;13.07;5.40;;;;;;;28.87;100.00;98436.34;5137114;28;20439;-64
2023/08/26 10:13:19;;;;;;;8.07;4.68;;;;;;;28.55;100.00;98431.56;5137335;28;20138;-60
2023/08/26 10:15:50;;;;;;;8.05;4.35;;;;;;;28.57;100.00;98419.81;5137307;28;20043;-66
2023/08/26 10:18:25;;;;;;;9.25;4.47;;;;;;;27.58;100.00;98411.69;5137375;28;20047;-63
2023/08/26 10:20:52;;;;;;;7.50;4.32;;;;;;;28.03;100.00;98417.72;5137209;28;20055;-62
2023/08/26 10:23:18;;;;;;;7.97;4.85;;;;;;;28.60;100.00;98413.94;5137548;28;20126;-66
2023/08/26 10:25:45;;;;;;;8.63;4.90;;;;;;;28.33;100.00;98404.03;5137065;28;20138;-60
2023/08/26 10:28:11;;;;;;;9.23;4.68;;;;;;;28.76;100.00;98429.38;5137531;28;20051;-63
2023/08/26 10:30:37;;;;;;;9.80;5.10;;;;;;;29.74;100.00;98438.31;5136977;28;20066;-64
2023/08/26 10:33:05;;;;;;;7.70;4.93;;;;;;;29.69;88.98;98444.72;5137348;28;20047;-66
2023/08/26 10:35:31;;;;;;;8.00;4.63;;;;;;;29.28;90.36;98453.66;5138335;27;20047;-61
2023/08/26 10:38:10;;;;;;;6.63;5.20;;;;;;;29.29;91.09;98438.25;5140746;28;20141;-67
2023/08/26 10:40:36;;;;;;;10.70;4.47;;;;;;;29.24;91.58;98436.19;5140889;28;20368;-64
2023/08/26 10:43:07;;;;;;;8.43;5.13;;;;;;;30.07;88.81;98428.28;5140413;28;20139;-65
2023/08/26 10:45:33;;;;;;;7.43;4.55;;;;;;;30.12;90.62;98425.41;5140685;28;20434;-61
2023/08/26 10:48:00;;;;;;;8.48;4.70;;;;;;;29.68;92.47;98421.34;5140489;28;20050;-65
2023/08/26 10:50:28;;;;;;;8.55;4.88;;;;;;;28.90;98.18;98405.06;5140773;28;20313;-61
2023/08/26 10:52:56;;;;;;;6.78;5.13;;;;;;;27.84;100.00;98410.91;5140429;28;20085;-66
2023/08/26 10:55:24;;;;;;;10.75;5.22;;;;;;;28.97;94.89;98407.38;5140781;28;20112;-65
2023/08/26 10:58:12;;;;;;;9.23;5.18;;;;;;;29.32;95.75;98409.00;5140143;28;20080;-63
2023/08/26 11:00:39;;;;;;;6.82;5.20;;;;;;;28.33;100.00;98400.47;5140180;28;20305;-63
2023/08/26 11:03:08;;;;;;;9.48;4.70;;;;;;;28.73;100.00;98407.81;5140232;28;20059;-66
2023/08/26 11:05:36;;;;;;;8.20;5.22;;;;;;;28.45;100.00;98402.06;5140318;28;20047;-60
2023/08/26 11:08:03;;;;;;;6.88;4.93;;;;;;;28.45;100.00;98393.59;5140263;28;20051;-63
2023/08/26 11:10:31;;;;;;;6.90;5.75;;;;;;;28.53;100.00;98391.09;5140409;28;20047;-61
2023/08/26 11:12:57;;;;;;;7.55;5.43;;;;;;;29.02;100.00;98397.41;5140419;28;20386;-63
2023/08/26 11:15:23;;;;;;;11.07;5.90;;;;;;;28.37;100.00;98400.97;5140139;28;20043;-61
2023/08/26 11:17:49;;;;;;;8.73;5.03;;;;;;;28.35;100.00;98395.84;5140610;28;20412;-61
2023/08/26 11:20:16;;;;;;;8.52;6.20;;;;;;;28.59;100.00;98389.84;5139741;28;20047;-63
2023/08/26 11:22:43;;;;;;;9.05;5.10;;;;;;;29.10;100.00;98380.75;5139994;28;20333;-65